Time;durP1;ratioP1;P1;durP2;ratioP2;P2;SDS_P1;SDS_P2;PMS_P1;PMS_P2;Temp;Humidity;BMP_temperature;BMP_pressure;BME280_temperature;BME280_humidity;BME280_pressure;Samples;Min_cycle;Max_cycle;Signal;HPM_P1;HPM_P2
2021/01/03 00:02:05;;;;;;;;;;;20.10;56.30;;;;;;5037709;28;1430;-66
2021/01/03 00:04:31;;;;;;;;;;;20.00;56.20;;;;;;5053534;28;1618;-66
2021/01/03 00:06:56;;;;;;;;;;;20.00;56.20;;;;;;5053634;28;1728;-65
2021/01/03 00:09:22;;;;;;;;;;;20.00;56.20;;;;;;5036854;28;1680;-67
2021/01/03 00:11:47;;;;;;;;;;;20.00;56.20;;;;;;5036777;28;1499;-65
2021/01/03 00:14:13;;;;;;;;;;;20.00;56.20;;;;;;5040995;28;1407;-65
2021/01/03 00:16:38;;;;;;;;;;;20.00;56.20;;;;;;5033544;28;1899;-65
2021/01/03 00:19:04;;;;;;;;;;;20.00;56.30;;;;;;5033943;28;1794;-65
2021/01/03 00:21:29;;;;;;;;;;;20.00;56.30;;;;;;5016239;28;1668;-65
2021/01/03 00:23:55;;;;;;;;;;;20.00;56.20;;;;;;5033595;28;1719;-64
2021/01/03 00:26:20;;;;;;;;;;;20.00;56.30;;;;;;5036883;28;1976;-65
2021/01/03 00:28:46;;;;;;;;;;;20.00;56.30;;;;;;5053163;28;1400;-65
2021/01/03 00:31:11;;;;;;;;;;;20.00;56.30;;;;;;5053447;28;1609;-65
2021/01/03 00:33:37;;;;;;;;;;;20.00;56.30;;;;;;5052842;28;1728;-66
2021/01/03 00:36:02;;;;;;;;;;;20.00;56.30;;;;;;5052758;28;1957;-66
2021/01/03 00:38:28;;;;;;;;;;;20.00;56.30;;;;;;5053230;28;1662;-66
2021/01/03 00:40:53;;;;;;;;;;;20.00;56.30;;;;;;5053404;28;1700;-66
2021/01/03 00:43:19;;;;;;;;;;;20.00;56.30;;;;;;5053196;28;1400;-66
2021/01/03 00:45:44;;;;;;;;;;;20.00;56.40;;;;;;5052795;28;1664;-66
2021/01/03 00:48:10;;;;;;;;;;;20.00;56.40;;;;;;5053497;28;1390;-66
2021/01/03 00:50:35;;;;;;;;;;;20.00;56.40;;;;;;5030523;28;1705;-66
2021/01/03 00:53:01;;;;;;;;;;;20.00;56.40;;;;;;5032983;28;1665;-66
2021/01/03 00:55:27;;;;;;;;;;;20.00;56.40;;;;;;5031555;28;1906;-66
2021/01/03 00:57:52;;;;;;;;;;;20.00;56.40;;;;;;5031170;28;1631;-66
2021/01/03 01:00:22;;;;;;;;;;;20.00;56.40;;;;;;5033100;28;1400;-66
2021/01/03 01:02:47;;;;;;;;;;;20.00;56.40;;;;;;5031772;28;1622;-66
2021/01/03 01:05:13;;;;;;;;;;;20.00;56.40;;;;;;5032665;28;1630;-66
2021/01/03 01:07:38;;;;;;;;;;;20.00;56.40;;;;;;5031658;28;1706;-66
2021/01/03 01:10:05;;;;;;;;;;;20.00;56.40;;;;;;5031789;28;1726;-67
2021/01/03 01:12:34;;;;;;;;;;;19.90;56.40;;;;;;5033215;28;1590;-67
2021/01/03 01:15:01;;;;;;;;;;;19.90;56.40;;;;;;5010862;28;1961;-67
2021/01/03 01:17:26;;;;;;;;;;;20.00;56.40;;;;;;5011469;28;1660;-67
2021/01/03 01:19:52;;;;;;;;;;;20.00;56.40;;;;;;5011905;28;1657;-66
2021/01/03 01:22:17;;;;;;;;;;;20.00;56.40;;;;;;5024025;28;1556;-66
2021/01/03 01:24:42;;;;;;;;;;;19.90;56.40;;;;;;5032240;28;1707;-65
2021/01/03 01:27:08;;;;;;;;;;;20.00;56.50;;;;;;5032393;28;1601;-66
2021/01/03 01:29:33;;;;;;;;;;;19.90;56.40;;;;;;5032840;28;1682;-66
2021/01/03 01:31:59;;;;;;;;;;;19.90;56.40;;;;;;5031729;28;1392;-66
2021/01/03 01:34:24;;;;;;;;;;;19.90;56.40;;;;;;5031109;28;1654;-66
2021/01/03 01:36:50;;;;;;;;;;;19.90;56.50;;;;;;5032059;28;1894;-66
2021/01/03 01:39:15;;;;;;;;;;;19.90;56.50;;;;;;5032497;28;1757;-66
2021/01/03 01:41:41;;;;;;;;;;;19.90;56.50;;;;;;5028313;28;1422;-67
2021/01/03 01:44:06;;;;;;;;;;;19.90;56.40;;;;;;5032118;28;1630;-67
2021/01/03 01:46:36;;;;;;;;;;;19.90;56.50;;;;;;5031993;28;1344;-67
2021/01/03 01:49:03;;;;;;;;;;;19.90;56.50;;;;;;5031523;28;1409;-67
2021/01/03 01:51:29;;;;;;;;;;;19.90;56.50;;;;;;5019268;28;1511;-67
2021/01/03 01:53:58;;;;;;;;;;;19.90;56.50;;;;;;5021720;28;1703;-67
2021/01/03 01:56:26;;;;;;;;;;;19.90;56.50;;;;;;5027502;28;1960;-66
2021/01/03 01:58:51;;;;;;;;;;;19.90;56.50;;;;;;5041344;28;1337;-66
2021/01/03 02:01:19;;;;;;;;;;;19.90;56.50;;;;;;5028627;28;1796;-66
2021/01/03 02:03:44;;;;;;;;;;;19.90;56.50;;;;;;5067822;28;1509;-67
2021/01/03 02:06:14;;;;;;;;;;;19.90;56.50;;;;;;5035944;28;1411;-67
2021/01/03 02:08:42;;;;;;;;;;;19.90;56.50;;;;;;5068182;28;1580;-67
2021/01/03 02:11:09;;;;;;;;;;;19.90;56.50;;;;;;5068688;28;1368;-67
2021/01/03 02:13:36;;;;;;;;;;;19.90;56.60;;;;;;5060553;28;1434;-67
2021/01/03 02:16:06;;;;;;;;;;;19.90;56.60;;;;;;5031770;28;1890;-67
2021/01/03 02:18:31;;;;;;;;;;;19.90;56.50;;;;;;5068024;28;1363;-67
2021/01/03 02:20:56;;;;;;;;;;;19.90;56.60;;;;;;5035850;28;1492;-67
2021/01/03 02:23:36;;;;;;;;;;;19.90;56.60;;;;;;5035608;28;1596;-67
2021/01/03 02:26:02;;;;;;;;;;;19.90;56.60;;;;;;5035255;28;1382;-66
2021/01/03 02:28:27;;;;;;;;;;;19.90;56.60;;;;;;5067863;28;1670;-66
2021/01/03 02:30:53;;;;;;;;;;;19.90;56.60;;;;;;5067240;28;1433;-67
2021/01/03 02:33:26;;;;;;;;;;;19.80;56.50;;;;;;5026028;28;1315;-66
2021/01/03 02:35:56;;;;;;;;;;;19.80;56.60;;;;;;5030999;28;2243;-67
2021/01/03 02:38:23;;;;;;;;;;;19.80;56.60;;;;;;5031517;28;1588;-67
2021/01/03 02:40:48;;;;;;;;;;;19.90;56.60;;;;;;5030604;28;1690;-67
2021/01/03 02:43:13;;;;;;;;;;;19.90;56.60;;;;;;5030984;28;1684;-67
2021/01/03 02:45:39;;;;;;;;;;;19.90;56.50;;;;;;5033045;28;1448;-67
2021/01/03 02:48:09;;;;;;;;;;;19.90;56.50;;;;;;5067526;28;1583;-67
2021/01/03 02:50:34;;;;;;;;;;;19.90;56.50;;;;;;5062554;28;1698;-67
2021/01/03 02:53:00;;;;;;;;;;;19.90;56.50;;;;;;5046966;28;1599;-67
2021/01/03 02:55:25;;;;;;;;;;;19.90;56.40;;;;;;5033618;28;1902;-67
2021/01/03 02:57:51;;;;;;;;;;;19.90;56.40;;;;;;5035579;28;1422;-67
2021/01/03 03:00:23;;;;;;;;;;;19.90;56.40;;;;;;5032921;28;1710;-67
2021/01/03 03:02:49;;;;;;;;;;;19.90;56.30;;;;;;5019058;28;1646;-67
2021/01/03 03:05:15;;;;;;;;;;;20.00;56.30;;;;;;5066485;28;1223;-67
2021/01/03 03:07:40;;;;;;;;;;;20.00;56.30;;;;;;5066848;28;1609;-67
2021/01/03 03:10:06;;;;;;;;;;;20.00;56.30;;;;;;5033731;28;1591;-67
2021/01/03 03:12:32;;;;;;;;;;;20.00;56.30;;;;;;5067269;28;1682;-67
2021/01/03 03:14:57;;;;;;;;;;;20.00;56.20;;;;;;5033381;28;1906;-67
2021/01/03 03:17:22;;;;;;;;;;;20.00;56.20;;;;;;5032347;28;1600;-67
2021/01/03 03:19:48;;;;;;;;;;;20.00;56.20;;;;;;5033793;28;1622;-67
2021/01/03 03:22:13;;;;;;;;;;;20.00;56.20;;;;;;5034853;28;1622;-67
2021/01/03 03:24:39;;;;;;;;;;;20.00;56.10;;;;;;5034107;28;1693;-67
2021/01/03 03:27:04;;;;;;;;;;;20.00;56.20;;;;;;5017460;28;1420;-67
2021/01/03 03:29:30;;;;;;;;;;;20.00;56.10;;;;;;5012543;28;1579;-67
2021/01/03 03:31:55;;;;;;;;;;;20.00;56.20;;;;;;5011023;28;1312;-67
2021/01/03 03:34:21;;;;;;;;;;;20.00;56.10;;;;;;5013501;28;1416;-67
2021/01/03 03:36:46;;;;;;;;;;;20.00;56.10;;;;;;5027804;28;1894;-67
2021/01/03 03:39:12;;;;;;;;;;;20.00;56.20;;;;;;5027280;28;1539;-68
2021/01/03 03:41:37;;;;;;;;;;;20.00;56.10;;;;;;5011754;28;1717;-66
2021/01/03 03:44:03;;;;;;;;;;;20.00;56.20;;;;;;5011861;28;1321;-67
2021/01/03 03:46:29;;;;;;;;;;;20.00;56.20;;;;;;5011801;28;1349;-66
2021/01/03 03:48:54;;;;;;;;;;;20.00;56.20;;;;;;5011820;28;1624;-67
2021/01/03 03:51:20;;;;;;;;;;;20.00;56.10;;;;;;5012490;28;1502;-67
2021/01/03 03:53:46;;;;;;;;;;;20.00;56.20;;;;;;5013843;28;1313;-67
2021/01/03 03:56:11;;;;;;;;;;;20.00;56.10;;;;;;5014384;28;1960;-67
2021/01/03 03:58:37;;;;;;;;;;;20.00;56.10;;;;;;5039732;28;1130;-67
2021/01/03 04:01:03;;;;;;;;;;;20.00;56.10;;;;;;5053409;28;1076;-67
2021/01/03 04:03:28;;;;;;;;;;;20.00;56.10;;;;;;5035221;28;1304;-67
2021/01/03 04:05:53;;;;;;;;;;;20.00;56.10;;;;;;5053529;28;1135;-67
2021/01/03 04:08:19;;;;;;;;;;;20.00;56.10;;;;;;5053897;28;975;-67
2021/01/03 04:10:44;;;;;;;;;;;20.00;56.10;;;;;;5053990;28;1160;-67
2021/01/03 04:13:10;;;;;;;;;;;20.00;56.20;;;;;;5049960;28;1294;-67
2021/01/03 04:15:35;;;;;;;;;;;20.00;56.10;;;;;;5015726;28;1969;-67
2021/01/03 04:18:01;;;;;;;;;;;20.00;56.10;;;;;;5033636;28;1285;-67
2021/01/03 04:20:26;;;;;;;;;;;20.00;56.10;;;;;;5033421;28;1269;-67
2021/01/03 04:22:52;;;;;;;;;;;20.00;56.10;;;;;;5032873;28;1279;-68
2021/01/03 04:25:17;;;;;;;;;;;20.00;56.10;;;;;;5033371;28;1395;-67
2021/01/03 04:27:43;;;;;;;;;;;20.00;56.10;;;;;;5015703;28;1077;-67
2021/01/03 04:30:09;;;;;;;;;;;20.10;56.10;;;;;;5033677;28;1195;-67
2021/01/03 04:32:34;;;;;;;;;;;20.00;56.10;;;;;;5015253;28;1294;-67
2021/01/03 04:34:59;;;;;;;;;;;20.00;56.10;;;;;;5033187;28;1954;-67
2021/01/03 04:37:25;;;;;;;;;;;20.00;56.10;;;;;;5015138;28;1100;-67
2021/01/03 04:39:50;;;;;;;;;;;20.00;56.10;;;;;;5033484;28;1278;-67
2021/01/03 04:42:17;;;;;;;;;;;20.00;56.10;;;;;;5015428;28;1393;-67
2021/01/03 04:44:47;;;;;;;;;;;20.00;56.10;;;;;;4998676;28;1355;-67
2021/01/03 04:47:20;;;;;;;;;;;20.00;56.10;;;;;;5033060;28;1089;-67
2021/01/03 04:49:55;;;;;;;;;;;20.00;56.10;;;;;;5015226;28;1081;-67
2021/01/03 04:52:27;;;;;;;;;;;20.00;56.00;;;;;;5033121;28;1395;-67
2021/01/03 04:55:08;;;;;;;;;;;20.00;56.00;;;;;;5031720;28;1910;-67
2021/01/03 04:57:37;;;;;;;;;;;20.00;56.10;;;;;;5032120;28;1384;-66
2021/01/03 05:00:03;;;;;;;;;;;20.00;56.00;;;;;;5015479;28;1269;-66
2021/01/03 05:02:31;;;;;;;;;;;20.00;56.10;;;;;;5033461;28;1370;-67
2021/01/03 05:05:15;;;;;;;;;;;20.00;56.10;;;;;;5032347;28;1053;-66
2021/01/03 05:07:41;;;;;;;;;;;20.00;56.00;;;;;;5032586;28;1166;-66
2021/01/03 05:10:10;;;;;;;;;;;20.10;56.10;;;;;;5031645;28;1093;-66
2021/01/03 05:12:39;;;;;;;;;;;20.00;56.00;;;;;;5032962;28;1419;-67
2021/01/03 05:15:14;;;;;;;;;;;20.00;56.00;;;;;;5031934;28;1922;-67
2021/01/03 05:17:39;;;;;;;;;;;20.00;56.00;;;;;;5032957;28;1300;-67
2021/01/03 05:20:05;;;;;;;;;;;20.00;56.00;;;;;;5031811;28;1282;-66
2021/01/03 05:22:32;;;;;;;;;;;20.00;56.00;;;;;;5031488;28;1806;-67
2021/01/03 05:24:58;;;;;;;;;;;20.00;56.00;;;;;;5031579;28;1064;-66
2021/01/03 05:27:23;;;;;;;;;;;20.00;56.00;;;;;;5031886;28;1387;-67
2021/01/03 05:29:49;;;;;;;;;;;20.00;56.00;;;;;;5032485;28;1108;-66
2021/01/03 05:32:24;;;;;;;;;;;20.00;56.00;;;;;;5032614;28;1374;-67
2021/01/03 05:34:50;;;;;;;;;;;20.00;56.00;;;;;;5031558;28;1961;-67
2021/01/03 05:37:19;;;;;;;;;;;20.00;56.00;;;;;;5032740;28;1279;-67
2021/01/03 05:39:44;;;;;;;;;;;20.00;56.00;;;;;;5014557;28;1312;-66
2021/01/03 05:42:16;;;;;;;;;;;20.00;56.00;;;;;;5031532;28;1359;-66
2021/01/03 05:44:43;;;;;;;;;;;20.00;56.00;;;;;;5031753;28;1313;-67
2021/01/03 05:47:17;;;;;;;;;;;20.00;56.10;;;;;;5031855;28;1286;-67
2021/01/03 05:49:43;;;;;;;;;;;20.00;56.00;;;;;;5032784;28;1240;-66
2021/01/03 05:52:11;;;;;;;;;;;20.00;56.00;;;;;;5035888;22;2079;-70
2021/01/03 05:54:37;;;;;;;;;;;20.00;56.00;;;;;;5023440;28;1188;-71
2021/01/03 05:57:03;;;;;;;;;;;20.00;56.00;;;;;;5021582;28;1058;-70
2021/01/03 05:59:29;;;;;;;;;;;20.00;56.00;;;;;;5060666;28;1138;-70
2021/01/03 06:02:11;;;;;;;;;;;20.00;56.00;;;;;;5034880;28;1217;-70
2021/01/03 06:04:37;;;;;;;;;;;20.00;56.00;;;;;;5021511;28;1088;-70
2021/01/03 06:07:07;;;;;;;;;;;20.00;56.00;;;;;;4995310;28;908;-70
2021/01/03 06:09:33;;;;;;;;;;;20.00;56.00;;;;;;5013136;28;785;-70
2021/01/03 06:12:13;;;;;;;;;;;20.00;56.00;;;;;;4985577;28;1347;-70
2021/01/03 06:14:38;;;;;;;;;;;20.00;56.00;;;;;;5014641;28;1898;-70
2021/01/03 06:17:05;;;;;;;;;;;20.00;56.00;;;;;;5023533;28;1119;-70
2021/01/03 06:19:35;;;;;;;;;;;20.00;56.00;;;;;;5019673;28;1135;-70
2021/01/03 06:22:01;;;;;;;;;;;20.00;56.00;;;;;;4998413;28;1362;-70
2021/01/03 06:24:27;;;;;;;;;;;20.00;56.00;;;;;;5027561;28;1195;-70
2021/01/03 06:27:03;;;;;;;;;;;20.00;56.00;;;;;;5032805;28;786;-70
2021/01/03 06:29:35;;;;;;;;;;;20.00;56.00;;;;;;5028163;28;1116;-70
2021/01/03 06:32:16;;;;;;;;;;;20.00;56.00;;;;;;5025593;28;1256;-71
2021/01/03 06:34:51;;;;;;;;;;;20.00;56.00;;;;;;5012264;28;1894;-70
2021/01/03 06:37:27;;;;;;;;;;;20.00;56.00;;;;;;5027054;28;1187;-70
2021/01/03 06:39:54;;;;;;;;;;;20.00;56.00;;;;;;5024200;28;1155;-70
2021/01/03 06:42:32;;;;;;;;;;;20.00;56.00;;;;;;5018202;28;1272;-70
2021/01/03 06:44:57;;;;;;;;;;;20.00;56.00;;;;;;5033702;28;892;-70
2021/01/03 06:47:27;;;;;;;;;;;20.00;55.90;;;;;;5035881;28;1019;-71
2021/01/03 06:50:01;;;;;;;;;;;20.00;56.00;;;;;;5029839;28;1088;-70
2021/01/03 06:52:29;;;;;;;;;;;20.00;56.00;;;;;;5029130;28;1276;-70
2021/01/03 06:54:58;;;;;;;;;;;20.00;56.00;;;;;;5041711;28;1960;-70
2021/01/03 06:57:42;;;;;;;;;;;20.00;56.00;;;;;;5055609;28;900;-71
2021/01/03 07:00:14;;;;;;;;;;;20.00;56.00;;;;;;5053038;28;1100;-70
2021/01/03 07:02:47;;;;;;;;;;;20.00;56.60;;;;;;5046438;28;1355;-70
2021/01/03 07:05:12;;;;;;;;;;;20.00;56.00;;;;;;5024187;28;1135;-70
2021/01/03 07:07:38;;;;;;;;;;;20.00;56.00;;;;;;5055682;28;818;-70
2021/01/03 07:10:05;;;;;;;;;;;20.00;55.90;;;;;;5003429;28;1213;-69
2021/01/03 07:12:34;;;;;;;;;;;20.00;56.00;;;;;;5001932;28;1293;-70
2021/01/03 07:15:00;;;;;;;;;;;20.00;56.00;;;;;;5035897;28;1898;-70
2021/01/03 07:17:26;;;;;;;;;;;20.00;55.90;;;;;;5016898;28;876;-70
2021/01/03 07:19:58;;;;;;;;;;;20.00;56.00;;;;;;5017472;28;1112;-70
2021/01/03 07:22:44;;;;;;;;;;;20.00;56.00;;;;;;5012828;28;1347;-71
2021/01/03 07:25:20;;;;;;;;;;;20.00;56.00;;;;;;4990179;28;1391;-71
2021/01/03 07:27:53;;;;;;;;;;;20.00;56.00;;;;;;5026564;28;1129;-71
2021/01/03 07:30:30;;;;;;;;;;;20.00;56.60;;;;;;5027726;28;1068;-71
2021/01/03 07:33:10;;;;;;;;;;;20.00;55.90;;;;;;5018936;28;1265;-70
2021/01/03 07:35:37;;;;;;;;;;;20.00;55.90;;;;;;5017034;28;1969;-70
2021/01/03 07:38:14;;;;;;;;;;;20.00;55.90;;;;;;5009317;28;1243;-69
2021/01/03 07:40:54;;;;;;;;;;;20.00;56.00;;;;;;5017090;28;1104;-70
2021/01/03 07:43:19;;;;;;;;;;;20.00;55.90;;;;;;5027666;28;1327;-70
2021/01/03 07:45:45;;;;;;;;;;;20.00;55.90;;;;;;5033013;28;1171;-70
2021/01/03 07:48:30;;;;;;;;;;;20.00;55.90;;;;;;5000392;28;1367;-70
2021/01/03 07:50:55;;;;;;;;;;;20.00;55.90;;;;;;5017211;28;1285;-70
2021/01/03 07:53:29;;;;;;;;;;;20.00;55.90;;;;;;5017424;28;1321;-70
2021/01/03 07:56:11;;;;;;;;;;;20.00;56.00;;;;;;5027511;28;1960;-70
2021/01/03 07:58:36;;;;;;;;;;;20.00;55.80;;;;;;5032188;28;1179;-70
2021/01/03 08:01:02;;;;;;;;;;;20.00;55.60;;;;;;5043895;28;1147;-70
2021/01/03 08:03:27;;;;;;;;;;;20.00;55.50;;;;;;5014839;28;1873;-70
2021/01/03 08:05:53;;;;;;;;;;;20.00;55.50;;;;;;5017085;28;1070;-70
2021/01/03 08:08:28;;;;;;;;;;;20.00;55.50;;;;;;5016303;28;1173;-70
2021/01/03 08:11:04;;;;;;;;;;;20.00;55.50;;;;;;5017002;28;781;-70
2021/01/03 08:13:34;;;;;;;;;;;20.00;55.50;;;;;;5053161;28;1201;-70
2021/01/03 08:16:00;;;;;;;;;;;20.00;55.60;;;;;;5019231;28;1969;-70
2021/01/03 08:18:25;;;;;;;;;;;20.00;55.60;;;;;;5029558;28;1170;-70
2021/01/03 08:20:50;;;;;;;;;;;20.00;55.50;;;;;;5016542;28;877;-70
2021/01/03 08:23:16;;;;;;;;;;;20.00;55.50;;;;;;5040959;28;1217;-70
2021/01/03 08:25:42;;;;;;;;;;;20.00;55.50;;;;;;5053622;28;1060;-70
2021/01/03 08:28:12;;;;;;;;;;;20.00;55.50;;;;;;5000104;28;1228;-70
2021/01/03 08:30:37;;;;;;;;;;;20.00;55.50;;;;;;5029664;28;1081;-70
2021/01/03 08:33:11;;;;;;;;;;;20.00;55.50;;;;;;5023871;28;1289;-70
2021/01/03 08:35:36;;;;;;;;;;;20.00;55.50;;;;;;5021037;28;1895;-70
2021/01/03 08:38:02;;;;;;;;;;;20.00;55.50;;;;;;5042703;28;1096;-70
2021/01/03 08:40:29;;;;;;;;;;;20.00;55.50;;;;;;5022805;28;1135;-70
2021/01/03 08:42:57;;;;;;;;;;;20.00;55.50;;;;;;5027173;28;1222;-70
2021/01/03 08:45:27;;;;;;;;;;;20.00;55.50;;;;;;5047302;28;1100;-70
2021/01/03 08:47:53;;;;;;;;;;;20.00;55.40;;;;;;5025993;28;1088;-70
2021/01/03 08:50:25;;;;;;;;;;;20.00;55.50;;;;;;5022462;28;1032;-70
2021/01/03 08:52:58;;;;;;;;;;;20.00;55.50;;;;;;5006193;28;1248;-70
2021/01/03 08:55:23;;;;;;;;;;;20.00;55.50;;;;;;5015995;28;1902;-70
2021/01/03 08:57:53;;;;;;;;;;;20.00;55.50;;;;;;4999675;28;1201;-70
2021/01/03 09:00:19;;;;;;;;;;;20.00;55.50;;;;;;5015972;28;1074;-70
2021/01/03 09:02:45;;;;;;;;;;;19.90;55.50;;;;;;5010332;28;1350;-70
2021/01/03 09:05:11;;;;;;;;;;;20.00;55.50;;;;;;5019307;28;1398;-70
2021/01/03 09:07:36;;;;;;;;;;;19.90;55.50;;;;;;5034964;28;940;-70
2021/01/03 09:10:03;;;;;;;;;;;20.00;55.50;;;;;;5030879;28;872;-70
2021/01/03 09:12:41;;;;;;;;;;;19.90;55.40;;;;;;5026756;28;1280;-70
2021/01/03 09:15:25;;;;;;;;;;;19.90;55.50;;;;;;5013400;28;1985;-71
2021/01/03 09:18:05;;;;;;;;;;;20.00;55.50;;;;;;5026059;28;1145;-70
2021/01/03 09:20:38;;;;;;;;;;;19.90;55.40;;;;;;4998414;28;1323;-70
2021/01/03 09:23:05;;;;;;;;;;;19.90;55.40;;;;;;5019305;28;1310;-70
2021/01/03 09:25:34;;;;;;;;;;;19.90;55.40;;;;;;5041649;28;1084;-70
2021/01/03 09:28:07;;;;;;;;;;;20.00;55.40;;;;;;5036208;28;2041;-70
2021/01/03 09:30:33;;;;;;;;;;;19.90;55.30;;;;;;5007437;28;1383;-70
2021/01/03 09:33:22;;;;;;;;;;;20.00;55.50;;;;;;5011064;28;1312;-70
2021/01/03 09:35:47;;;;;;;;;;;19.90;55.30;;;;;;5021637;28;1964;-71
2021/01/03 09:38:32;;;;;;;;;;;19.90;55.30;;;;;;5031441;28;1189;-71
2021/01/03 09:41:16;;;;;;;;;;;19.90;55.30;;;;;;5044469;28;1099;-71
2021/01/03 09:44:08;;;;;;;;;;;19.90;55.30;;;;;;5030824;28;1339;-70
2021/01/03 09:46:39;;;;;;;;;;;19.90;55.30;;;;;;5014318;28;1359;-70
2021/01/03 09:49:37;;;;;;;;;;;19.90;55.30;;;;;;5044785;28;1222;-70
2021/01/03 09:52:05;;;;;;;;;;;19.90;55.30;;;;;;4980592;28;1385;-70
2021/01/03 09:54:43;;;;;;;;;;;19.90;55.30;;;;;;5012927;28;1358;-70
2021/01/03 09:57:11;;;;;;;;;;;19.90;55.30;;;;;;5034312;28;1895;-70
2021/01/03 09:59:37;;;;;;;;;;;19.90;55.30;;;;;;5001307;28;1301;-70
2021/01/03 10:02:15;;;;;;;;;;;20.00;55.30;;;;;;5030813;28;1339;-70
2021/01/03 10:04:41;;;;;;;;;;;20.00;55.40;;;;;;5044034;28;1124;-70
2021/01/03 10:07:21;;;;;;;;;;;19.90;55.30;;;;;;5013255;28;1023;-70
2021/01/03 10:09:50;;;;;;;;;;;20.00;55.30;;;;;;5013999;28;1316;-70
2021/01/03 10:12:20;;;;;;;;;;;20.00;55.10;;;;;;5013735;28;1288;-70
2021/01/03 10:14:52;;;;;;;;;;;20.10;55.10;;;;;;5015201;28;1183;-70
2021/01/03 10:17:18;;;;;;;;;;;20.20;54.80;;;;;;4996197;28;1469;-70
2021/01/03 10:19:44;;;;;;;;;;;20.30;54.50;;;;;;5028349;28;1240;-70
2021/01/03 10:22:42;;;;;;;;;;;20.40;54.30;;;;;;5018439;28;1347;-70
2021/01/03 10:25:17;;;;;;;;;;;20.50;54.00;;;;;;5012790;28;1306;-70
2021/01/03 10:28:01;;;;;;;;;;;20.60;53.70;;;;;;5016330;28;1382;-70
2021/01/03 10:30:27;;;;;;;;;;;20.70;53.40;;;;;;5034827;28;860;-70
2021/01/03 10:32:52;;;;;;;;;;;20.80;53.10;;;;;;5030790;28;1261;-70
2021/01/03 10:35:18;;;;;;;;;;;20.90;53.00;;;;;;5010998;28;1894;-70
2021/01/03 10:37:43;;;;;;;;;;;20.90;52.70;;;;;;5016677;28;1303;-71
2021/01/03 10:40:09;;;;;;;;;;;21.00;52.60;;;;;;5027745;28;1188;-71
2021/01/03 10:42:34;;;;;;;;;;;21.10;52.50;;;;;;5017990;28;1351;-70
2021/01/03 10:45:00;;;;;;;;;;;21.10;52.30;;;;;;5033952;28;1338;-71
2021/01/03 10:47:25;;;;;;;;;;;21.10;52.20;;;;;;5016275;28;1307;-70
2021/01/03 10:49:51;;;;;;;;;;;21.20;52.20;;;;;;5016989;28;1375;-70
2021/01/03 10:52:16;;;;;;;;;;;21.20;52.20;;;;;;5035055;28;1292;-70
2021/01/03 10:54:42;;;;;;;;;;;21.20;52.10;;;;;;5035531;28;1297;-70
2021/01/03 10:57:07;;;;;;;;;;;21.20;52.10;;;;;;5038228;28;1902;-70
2021/01/03 10:59:33;;;;;;;;;;;21.20;52.00;;;;;;5043463;28;1319;-70
2021/01/03 11:01:58;;;;;;;;;;;21.30;52.00;;;;;;5017518;28;1437;-70
2021/01/03 11:04:24;;;;;;;;;;;21.30;52.00;;;;;;5046370;28;1151;-70
2021/01/03 11:06:50;;;;;;;;;;;21.30;52.00;;;;;;5023765;28;1362;-70
2021/01/03 11:09:26;;;;;;;;;;;21.30;51.90;;;;;;5025917;28;1303;-70
2021/01/03 11:11:56;;;;;;;;;;;21.30;51.90;;;;;;5017466;28;1425;-70
2021/01/03 11:14:22;;;;;;;;;;;21.30;51.80;;;;;;5003781;28;1430;-70
2021/01/03 11:16:47;;;;;;;;;;;21.30;51.80;;;;;;5016682;28;1961;-70
2021/01/03 11:19:13;;;;;;;;;;;21.30;51.80;;;;;;5017014;28;1374;-70
2021/01/03 11:21:39;;;;;;;;;;;21.30;51.80;;;;;;5017216;28;1269;-70
2021/01/03 11:24:05;;;;;;;;;;;21.20;51.70;;;;;;5047038;28;1178;-70
2021/01/03 11:26:32;;;;;;;;;;;21.20;51.80;;;;;;5023712;28;1326;-70
2021/01/03 11:28:57;;;;;;;;;;;21.20;51.80;;;;;;5003715;28;1614;-70
2021/01/03 11:31:29;;;;;;;;;;;21.20;51.80;;;;;;5032305;28;1321;-70
2021/01/03 11:33:54;;;;;;;;;;;21.20;51.70;;;;;;5047978;28;1213;-70
2021/01/03 11:36:20;;;;;;;;;;;21.20;51.80;;;;;;5016973;28;1907;-70
2021/01/03 11:38:45;;;;;;;;;;;21.20;51.80;;;;;;5034030;28;1381;-70
2021/01/03 11:41:12;;;;;;;;;;;21.20;51.80;;;;;;5034179;28;1065;-70
2021/01/03 11:43:37;;;;;;;;;;;21.10;51.80;;;;;;5016307;28;1330;-70
2021/01/03 11:46:03;;;;;;;;;;;21.10;51.90;;;;;;5033942;28;1268;-70
2021/01/03 11:48:28;;;;;;;;;;;21.10;52.00;;;;;;5033829;28;1301;-70
2021/01/03 11:50:54;;;;;;;;;;;21.10;52.00;;;;;;5047219;28;1253;-70
2021/01/03 11:53:19;;;;;;;;;;;21.10;52.00;;;;;;5039281;23;3585;-67
2021/01/03 11:55:44;;;;;;;;;;;21.10;52.30;;;;;;5052920;28;1965;-67
2021/01/03 11:58:10;;;;;;;;;;;21.00;52.00;;;;;;5048453;28;1354;-67
2021/01/03 12:00:36;;;;;;;;;;;21.00;52.10;;;;;;5054034;28;1092;-67
2021/01/03 12:03:01;;;;;;;;;;;21.00;52.20;;;;;;5054220;28;1306;-67
2021/01/03 12:05:27;;;;;;;;;;;21.00;52.30;;;;;;5053650;28;1284;-67
2021/01/03 12:07:52;;;;;;;;;;;21.00;52.30;;;;;;5028425;28;2040;-69
2021/01/03 12:10:17;;;;;;;;;;;21.00;52.40;;;;;;5029351;28;1430;-69
2021/01/03 12:12:43;;;;;;;;;;;21.00;52.40;;;;;;5036997;28;1301;-69
2021/01/03 12:15:09;;;;;;;;;;;20.90;52.40;;;;;;5033882;28;1886;-69
2021/01/03 12:17:34;;;;;;;;;;;21.00;52.50;;;;;;5046418;28;802;-70
2021/01/03 12:20:00;;;;;;;;;;;21.00;52.60;;;;;;5026638;28;1424;-68
2021/01/03 12:22:25;;;;;;;;;;;21.00;52.60;;;;;;5032030;28;1668;-68
2021/01/03 12:24:50;;;;;;;;;;;20.90;52.60;;;;;;5025528;28;1389;-68
2021/01/03 12:27:16;;;;;;;;;;;20.90;52.70;;;;;;5033836;28;1350;-68
2021/01/03 12:29:42;;;;;;;;;;;20.90;52.80;;;;;;5033253;28;1180;-68
2021/01/03 12:32:08;;;;;;;;;;;20.90;52.90;;;;;;5033476;28;1336;-69
2021/01/03 12:34:33;;;;;;;;;;;20.90;53.00;;;;;;5032585;28;1342;-68
2021/01/03 12:37:05;;;;;;;;;;;20.90;53.00;;;;;;5032971;28;1958;-68
2021/01/03 12:39:31;;;;;;;;;;;20.90;53.10;;;;;;5033509;28;1344;-69
2021/01/03 12:41:57;;;;;;;;;;;20.80;53.20;;;;;;5033424;28;1348;-68
2021/01/03 12:44:22;;;;;;;;;;;20.80;53.20;;;;;;5033028;28;1284;-68
2021/01/03 12:46:48;;;;;;;;;;;20.80;53.30;;;;;;5032821;28;1365;-68
2021/01/03 12:49:13;;;;;;;;;;;20.80;53.30;;;;;;5033129;28;1366;-69
2021/01/03 12:51:38;;;;;;;;;;;20.80;53.40;;;;;;5015376;28;1329;-68
2021/01/03 12:54:04;;;;;;;;;;;20.80;53.40;;;;;;5008626;28;1357;-68
2021/01/03 12:56:30;;;;;;;;;;;20.80;53.50;;;;;;5008291;28;1914;-68
2021/01/03 12:58:58;;;;;;;;;;;20.70;53.50;;;;;;5025073;28;1467;-69
2021/01/03 13:01:26;;;;;;;;;;;20.70;53.50;;;;;;4996115;28;1291;-69
2021/01/03 13:03:52;;;;;;;;;;;20.70;53.60;;;;;;4986516;28;1307;-68
2021/01/03 13:06:17;;;;;;;;;;;20.70;53.60;;;;;;5017272;28;1310;-68
2021/01/03 13:08:42;;;;;;;;;;;20.70;54.30;;;;;;5012051;28;1293;-67
2021/01/03 13:11:08;;;;;;;;;;;20.70;53.70;;;;;;5012360;28;1290;-67
2021/01/03 13:13:34;;;;;;;;;;;20.70;53.80;;;;;;5013268;28;1242;-68
2021/01/03 13:15:59;;;;;;;;;;;20.70;53.80;;;;;;5011398;28;1961;-67
2021/01/03 13:18:25;;;;;;;;;;;20.60;53.80;;;;;;5011709;28;1292;-67
2021/01/03 13:20:50;;;;;;;;;;;20.60;53.80;;;;;;5011720;28;1312;-68
2021/01/03 13:23:16;;;;;;;;;;;20.60;53.90;;;;;;5011919;28;1269;-67
2021/01/03 13:25:41;;;;;;;;;;;20.60;53.90;;;;;;5011271;28;1241;-67
2021/01/03 13:28:07;;;;;;;;;;;20.60;53.90;;;;;;5016258;28;1442;-68
2021/01/03 13:30:32;;;;;;;;;;;20.60;54.00;;;;;;5030860;28;1262;-69
2021/01/03 13:32:58;;;;;;;;;;;20.60;54.00;;;;;;5014310;28;1362;-67
2021/01/03 13:35:23;;;;;;;;;;;20.60;54.10;;;;;;5011120;28;1956;-67
2021/01/03 13:37:49;;;;;;;;;;;20.60;54.10;;;;;;5011254;28;1375;-67
2021/01/03 13:40:15;;;;;;;;;;;20.50;54.10;;;;;;5020929;28;1364;-66
2021/01/03 13:42:40;;;;;;;;;;;20.50;54.10;;;;;;5000388;28;1345;-66
2021/01/03 13:45:06;;;;;;;;;;;20.50;54.20;;;;;;5010858;28;1351;-66
2021/01/03 13:47:32;;;;;;;;;;;20.50;54.20;;;;;;5003900;28;1352;-72
2021/01/03 13:49:57;;;;;;;;;;;20.50;54.30;;;;;;5011778;28;1246;-69
2021/01/03 13:52:22;;;;;;;;;;;20.50;54.30;;;;;;5003399;28;1898;-69
2021/01/03 13:54:48;;;;;;;;;;;20.50;54.30;;;;;;5032837;28;1344;-68
2021/01/03 13:57:13;;;;;;;;;;;20.50;54.30;;;;;;5041685;28;1969;-69
2021/01/03 13:59:39;;;;;;;;;;;20.50;54.40;;;;;;5028508;28;1357;-68
2021/01/03 14:02:05;;;;;;;;;;;20.50;54.40;;;;;;5018562;28;1362;-68
2021/01/03 14:04:31;;;;;;;;;;;20.40;54.40;;;;;;5043412;28;1347;-68
2021/01/03 14:06:56;;;;;;;;;;;20.40;54.40;;;;;;5033749;28;1358;-68
2021/01/03 14:09:22;;;;;;;;;;;20.40;54.40;;;;;;5030922;28;1368;-69
2021/01/03 14:11:47;;;;;;;;;;;20.50;54.40;;;;;;5019377;28;1337;-68
2021/01/03 14:14:12;;;;;;;;;;;20.40;54.40;;;;;;5018772;28;1544;-68
2021/01/03 14:16:39;;;;;;;;;;;20.40;54.40;;;;;;5038093;28;1951;-68
2021/01/03 14:19:04;;;;;;;;;;;20.40;54.40;;;;;;5038705;28;1320;-68
2021/01/03 14:21:30;;;;;;;;;;;20.40;54.40;;;;;;5019814;28;1303;-68
2021/01/03 14:23:56;;;;;;;;;;;20.40;54.40;;;;;;5042339;28;1340;-68
2021/01/03 14:26:21;;;;;;;;;;;20.40;54.40;;;;;;5058434;28;1365;-68
2021/01/03 14:28:47;;;;;;;;;;;20.40;54.40;;;;;;5040925;28;1308;-68
2021/01/03 14:31:20;;;;;;;;;;;20.40;54.50;;;;;;5058542;28;1310;-69
2021/01/03 14:33:45;;;;;;;;;;;20.40;54.50;;;;;;5039834;28;1324;-68
2021/01/03 14:36:11;;;;;;;;;;;20.40;54.50;;;;;;5058335;28;1969;-68